sensor_id;sensor_type;location;lat;lon;timestamp;P1;durP1;ratioP1;P2;durP2;ratioP2
10705;SDS011;5404;42.656;23.336;2024-01-15T00:01:07;146.77;;;49.13;;
10705;SDS011;5404;42.656;23.336;2024-01-15T00:03:32;118.72;;;41.22;;
10705;SDS011;5404;42.656;23.336;2024-01-15T00:05:58;140.43;;;46.88;;
10705;SDS011;5404;42.656;23.336;2024-01-15T00:08:23;96.55;;;37.20;;
10705;SDS011;5404;42.656;23.336;2024-01-15T00:10:49;111.90;;;40.42;;
10705;SDS011;5404;42.656;23.336;2024-01-15T00:13:14;115.13;;;39.88;;
10705;SDS011;5404;42.656;23.336;2024-01-15T00:15:39;106.38;;;37.97;;
10705;SDS011;5404;42.656;23.336;2024-01-15T00:18:05;116.40;;;39.83;;
10705;SDS011;5404;42.656;23.336;2024-01-15T00:20:31;114.80;;;39.72;;
10705;SDS011;5404;42.656;23.336;2024-01-15T00:22:56;123.85;;;40.92;;
10705;SDS011;5404;42.656;23.336;2024-01-15T00:25:22;120.90;;;39.55;;
10705;SDS011;5404;42.656;23.336;2024-01-15T00:27:47;113.63;;;40.28;;
10705;SDS011;5404;42.656;23.336;2024-01-15T00:30:13;120.97;;;42.00;;
10705;SDS011;5404;42.656;23.336;2024-01-15T00:32:39;116.75;;;40.72;;
10705;SDS011;5404;42.656;23.336;2024-01-15T00:35:04;116.15;;;40.88;;
10705;SDS011;5404;42.656;23.336;2024-01-15T00:37:30;106.22;;;38.47;;
10705;SDS011;5404;42.656;23.336;2024-01-15T00:39:55;114.40;;;40.30;;
10705;SDS011;5404;42.656;23.336;2024-01-15T00:42:20;116.97;;;41.55;;
10705;SDS011;5404;42.656;23.336;2024-01-15T00:44:46;163.40;;;60.25;;
10705;SDS011;5404;42.656;23.336;2024-01-15T00:47:11;130.18;;;46.88;;
10705;SDS011;5404;42.656;23.336;2024-01-15T00:49:37;127.68;;;45.30;;
10705;SDS011;5404;42.656;23.336;2024-01-15T00:52:03;133.23;;;43.80;;
10705;SDS011;5404;42.656;23.336;2024-01-15T00:54:28;123.15;;;43.63;;
10705;SDS011;5404;42.656;23.336;2024-01-15T00:56:54;144.82;;;51.10;;
10705;SDS011;5404;42.656;23.336;2024-01-15T00:59:20;141.80;;;48.28;;
10705;SDS011;5404;42.656;23.336;2024-01-15T01:01:45;131.82;;;46.25;;
10705;SDS011;5404;42.656;23.336;2024-01-15T01:04:11;92.07;;;36.65;;
10705;SDS011;5404;42.656;23.336;2024-01-15T01:06:37;119.60;;;42.75;;
10705;SDS011;5404;42.656;23.336;2024-01-15T01:09:02;119.93;;;44.35;;
10705;SDS011;5404;42.656;23.336;2024-01-15T01:11:28;104.10;;;39.53;;
10705;SDS011;5404;42.656;23.336;2024-01-15T01:13:53;123.95;;;43.35;;
10705;SDS011;5404;42.656;23.336;2024-01-15T01:16:19;100.05;;;40.58;;
10705;SDS011;5404;42.656;23.336;2024-01-15T01:18:44;96.68;;;35.60;;
10705;SDS011;5404;42.656;23.336;2024-01-15T01:21:10;73.18;;;26.48;;
10705;SDS011;5404;42.656;23.336;2024-01-15T01:23:35;73.90;;;25.35;;
10705;SDS011;5404;42.656;23.336;2024-01-15T01:26:01;74.60;;;31.17;;
10705;SDS011;5404;42.656;23.336;2024-01-15T01:28:27;76.25;;;33.33;;
10705;SDS011;5404;42.656;23.336;2024-01-15T01:30:53;98.10;;;37.47;;
10705;SDS011;5404;42.656;23.336;2024-01-15T01:33:18;65.53;;;26.33;;
10705;SDS011;5404;42.656;23.336;2024-01-15T01:35:43;87.85;;;33.08;;
10705;SDS011;5404;42.656;23.336;2024-01-15T01:38:10;77.85;;;32.20;;
10705;SDS011;5404;42.656;23.336;2024-01-15T01:40:35;83.75;;;33.30;;
10705;SDS011;5404;42.656;23.336;2024-01-15T01:43:02;89.05;;;35.03;;
10705;SDS011;5404;42.656;23.336;2024-01-15T01:45:28;77.20;;;30.50;;
10705;SDS011;5404;42.656;23.336;2024-01-15T01:47:53;63.80;;;25.50;;
10705;SDS011;5404;42.656;23.336;2024-01-15T01:50:19;67.88;;;28.15;;
10705;SDS011;5404;42.656;23.336;2024-01-15T01:52:44;68.78;;;29.48;;
10705;SDS011;5404;42.656;23.336;2024-01-15T01:55:10;68.88;;;30.08;;
10705;SDS011;5404;42.656;23.336;2024-01-15T01:57:37;70.38;;;30.75;;
10705;SDS011;5404;42.656;23.336;2024-01-15T02:00:03;73.70;;;28.00;;
10705;SDS011;5404;42.656;23.336;2024-01-15T02:02:29;81.20;;;32.40;;
10705;SDS011;5404;42.656;23.336;2024-01-15T02:04:56;79.32;;;29.88;;
10705;SDS011;5404;42.656;23.336;2024-01-15T02:07:21;80.35;;;31.55;;
10705;SDS011;5404;42.656;23.336;2024-01-15T02:09:47;76.35;;;30.45;;
10705;SDS011;5404;42.656;23.336;2024-01-15T02:12:14;79.75;;;31.42;;
10705;SDS011;5404;42.656;23.336;2024-01-15T02:14:40;83.25;;;30.85;;
10705;SDS011;5404;42.656;23.336;2024-01-15T02:17:05;72.70;;;28.95;;
10705;SDS011;5404;42.656;23.336;2024-01-15T02:19:31;71.43;;;29.80;;
10705;SDS011;5404;42.656;23.336;2024-01-15T02:21:56;69.05;;;27.65;;
10705;SDS011;5404;42.656;23.336;2024-01-15T02:24:22;86.80;;;29.30;;
10705;SDS011;5404;42.656;23.336;2024-01-15T02:26:48;68.45;;;29.58;;
10705;SDS011;5404;42.656;23.336;2024-01-15T02:29:14;70.30;;;28.75;;
10705;SDS011;5404;42.656;23.336;2024-01-15T02:31:40;58.45;;;25.73;;
10705;SDS011;5404;42.656;23.336;2024-01-15T02:34:05;69.55;;;28.17;;
10705;SDS011;5404;42.656;23.336;2024-01-15T02:36:31;68.57;;;27.60;;
10705;SDS011;5404;42.656;23.336;2024-01-15T02:38:56;63.42;;;25.23;;
10705;SDS011;5404;42.656;23.336;2024-01-15T02:41:22;62.92;;;26.35;;
10705;SDS011;5404;42.656;23.336;2024-01-15T02:43:47;74.10;;;28.27;;
10705;SDS011;5404;42.656;23.336;2024-01-15T02:46:13;70.90;;;27.70;;
10705;SDS011;5404;42.656;23.336;2024-01-15T02:48:38;67.88;;;27.02;;
10705;SDS011;5404;42.656;23.336;2024-01-15T02:51:04;66.95;;;27.88;;
10705;SDS011;5404;42.656;23.336;2024-01-15T02:53:29;72.05;;;28.48;;
10705;SDS011;5404;42.656;23.336;2024-01-15T02:55:54;66.57;;;27.05;;
10705;SDS011;5404;42.656;23.336;2024-01-15T02:58:20;55.15;;;24.52;;
10705;SDS011;5404;42.656;23.336;2024-01-15T03:00:46;65.60;;;27.20;;
10705;SDS011;5404;42.656;23.336;2024-01-15T03:03:12;64.05;;;26.85;;
10705;SDS011;5404;42.656;23.336;2024-01-15T03:05:37;69.72;;;26.33;;
10705;SDS011;5404;42.656;23.336;2024-01-15T03:08:03;61.15;;;24.95;;
10705;SDS011;5404;42.656;23.336;2024-01-15T03:10:28;61.88;;;24.83;;
10705;SDS011;5404;42.656;23.336;2024-01-15T03:12:54;62.25;;;26.92;;
10705;SDS011;5404;42.656;23.336;2024-01-15T03:15:19;60.25;;;26.27;;
10705;SDS011;5404;42.656;23.336;2024-01-15T03:17:44;61.55;;;26.85;;
10705;SDS011;5404;42.656;23.336;2024-01-15T03:20:10;66.18;;;27.30;;
10705;SDS011;5404;42.656;23.336;2024-01-15T03:22:36;70.45;;;24.77;;
10705;SDS011;5404;42.656;23.336;2024-01-15T03:25:02;64.85;;;25.90;;
10705;SDS011;5404;42.656;23.336;2024-01-15T03:27:28;63.85;;;26.73;;
10705;SDS011;5404;42.656;23.336;2024-01-15T03:29:54;63.35;;;26.55;;
10705;SDS011;5404;42.656;23.336;2024-01-15T03:32:19;62.95;;;26.15;;
10705;SDS011;5404;42.656;23.336;2024-01-15T03:34:45;71.20;;;27.27;;
10705;SDS011;5404;42.656;23.336;2024-01-15T03:37:12;70.47;;;27.35;;
10705;SDS011;5404;42.656;23.336;2024-01-15T03:39:38;68.45;;;28.08;;
10705;SDS011;5404;42.656;23.336;2024-01-15T03:42:03;85.10;;;27.95;;
10705;SDS011;5404;42.656;23.336;2024-01-15T03:44:29;71.10;;;29.02;;
10705;SDS011;5404;42.656;23.336;2024-01-15T03:46:54;70.68;;;28.30;;
10705;SDS011;5404;42.656;23.336;2024-01-15T03:49:20;62.20;;;28.30;;
10705;SDS011;5404;42.656;23.336;2024-01-15T03:51:45;71.30;;;28.02;;
10705;SDS011;5404;42.656;23.336;2024-01-15T03:54:11;80.88;;;29.23;;
10705;SDS011;5404;42.656;23.336;2024-01-15T03:56:36;65.97;;;28.25;;
10705;SDS011;5404;42.656;23.336;2024-01-15T03:59:02;72.53;;;28.70;;
10705;SDS011;5404;42.656;23.336;2024-01-15T04:01:27;84.90;;;32.75;;
10705;SDS011;5404;42.656;23.336;2024-01-15T04:03:53;85.78;;;33.28;;
10705;SDS011;5404;42.656;23.336;2024-01-15T04:06:19;95.68;;;33.90;;
10705;SDS011;5404;42.656;23.336;2024-01-15T04:08:45;85.50;;;32.63;;
10705;SDS011;5404;42.656;23.336;2024-01-15T04:11:10;80.35;;;31.88;;
10705;SDS011;5404;42.656;23.336;2024-01-15T04:13:35;80.13;;;31.75;;
10705;SDS011;5404;42.656;23.336;2024-01-15T04:16:01;89.68;;;33.80;;
10705;SDS011;5404;42.656;23.336;2024-01-15T04:18:26;90.45;;;33.70;;
10705;SDS011;5404;42.656;23.336;2024-01-15T04:20:52;85.63;;;32.58;;
10705;SDS011;5404;42.656;23.336;2024-01-15T04:23:17;78.65;;;30.17;;
10705;SDS011;5404;42.656;23.336;2024-01-15T04:25:43;75.63;;;31.55;;
10705;SDS011;5404;42.656;23.336;2024-01-15T04:28:09;78.47;;;30.92;;
10705;SDS011;5404;42.656;23.336;2024-01-15T04:30:34;71.10;;;30.13;;
10705;SDS011;5404;42.656;23.336;2024-01-15T04:33:00;88.90;;;31.73;;
10705;SDS011;5404;42.656;23.336;2024-01-15T04:35:25;83.55;;;30.80;;
10705;SDS011;5404;42.656;23.336;2024-01-15T04:37:50;83.30;;;31.38;;
10705;SDS011;5404;42.656;23.336;2024-01-15T04:40:17;114.40;;;40.28;;
10705;SDS011;5404;42.656;23.336;2024-01-15T04:42:42;231.13;;;70.97;;
10705;SDS011;5404;42.656;23.336;2024-01-15T04:45:08;162.13;;;50.53;;
10705;SDS011;5404;42.656;23.336;2024-01-15T04:47:33;129.98;;;44.88;;
10705;SDS011;5404;42.656;23.336;2024-01-15T04:49:59;140.90;;;43.88;;
10705;SDS011;5404;42.656;23.336;2024-01-15T04:52:24;103.60;;;36.08;;
10705;SDS011;5404;42.656;23.336;2024-01-15T04:54:49;109.38;;;36.83;;
10705;SDS011;5404;42.656;23.336;2024-01-15T04:57:15;102.78;;;39.28;;
10705;SDS011;5404;42.656;23.336;2024-01-15T04:59:40;99.85;;;36.28;;
10705;SDS011;5404;42.656;23.336;2024-01-15T05:02:06;82.78;;;32.50;;
10705;SDS011;5404;42.656;23.336;2024-01-15T05:04:31;90.95;;;34.45;;
10705;SDS011;5404;42.656;23.336;2024-01-15T05:06:57;100.53;;;36.05;;
10705;SDS011;5404;42.656;23.336;2024-01-15T05:09:23;92.15;;;36.67;;
10705;SDS011;5404;42.656;23.336;2024-01-15T05:11:48;97.97;;;36.40;;
10705;SDS011;5404;42.656;23.336;2024-01-15T05:14:14;115.05;;;39.72;;
10705;SDS011;5404;42.656;23.336;2024-01-15T05:16:39;105.78;;;39.00;;
10705;SDS011;5404;42.656;23.336;2024-01-15T05:19:11;95.00;;;36.53;;
10705;SDS011;5404;42.656;23.336;2024-01-15T05:21:36;98.85;;;39.30;;
10705;SDS011;5404;42.656;23.336;2024-01-15T05:24:02;93.65;;;37.00;;
10705;SDS011;5404;42.656;23.336;2024-01-15T05:26:27;97.60;;;38.03;;
10705;SDS011;5404;42.656;23.336;2024-01-15T05:28:53;97.53;;;37.83;;
10705;SDS011;5404;42.656;23.336;2024-01-15T05:31:18;109.80;;;39.03;;
10705;SDS011;5404;42.656;23.336;2024-01-15T05:33:43;106.47;;;38.55;;
10705;SDS011;5404;42.656;23.336;2024-01-15T05:36:09;111.65;;;38.72;;
10705;SDS011;5404;42.656;23.336;2024-01-15T05:38:34;93.07;;;34.70;;
10705;SDS011;5404;42.656;23.336;2024-01-15T05:41:00;106.00;;;40.45;;
10705;SDS011;5404;42.656;23.336;2024-01-15T05:43:25;101.43;;;40.15;;
10705;SDS011;5404;42.656;23.336;2024-01-15T05:45:50;80.15;;;28.55;;
10705;SDS011;5404;42.656;23.336;2024-01-15T05:48:16;109.25;;;41.03;;
10705;SDS011;5404;42.656;23.336;2024-01-15T05:50:41;114.00;;;40.30;;
10705;SDS011;5404;42.656;23.336;2024-01-15T05:53:07;112.35;;;43.60;;
10705;SDS011;5404;42.656;23.336;2024-01-15T05:55:32;108.75;;;40.25;;
10705;SDS011;5404;42.656;23.336;2024-01-15T05:57:58;127.53;;;46.95;;
10705;SDS011;5404;42.656;23.336;2024-01-15T06:00:23;119.72;;;44.08;;
10705;SDS011;5404;42.656;23.336;2024-01-15T06:02:48;110.47;;;43.42;;
10705;SDS011;5404;42.656;23.336;2024-01-15T06:05:14;122.50;;;48.33;;
10705;SDS011;5404;42.656;23.336;2024-01-15T06:07:39;134.40;;;49.40;;
10705;SDS011;5404;42.656;23.336;2024-01-15T06:10:05;139.38;;;52.92;;
10705;SDS011;5404;42.656;23.336;2024-01-15T06:12:31;258.15;;;84.43;;
10705;SDS011;5404;42.656;23.336;2024-01-15T06:14:57;453.08;;;140.85;;
10705;SDS011;5404;42.656;23.336;2024-01-15T06:17:22;397.63;;;117.47;;
10705;SDS011;5404;42.656;23.336;2024-01-15T06:19:48;406.92;;;123.88;;
10705;SDS011;5404;42.656;23.336;2024-01-15T06:22:13;300.88;;;102.95;;
10705;SDS011;5404;42.656;23.336;2024-01-15T06:24:39;359.15;;;125.05;;
10705;SDS011;5404;42.656;23.336;2024-01-15T06:27:04;278.20;;;91.38;;
10705;SDS011;5404;42.656;23.336;2024-01-15T06:29:29;176.27;;;66.15;;
10705;SDS011;5404;42.656;23.336;2024-01-15T06:31:55;224.18;;;79.70;;
10705;SDS011;5404;42.656;23.336;2024-01-15T06:34:20;169.95;;;63.38;;
10705;SDS011;5404;42.656;23.336;2024-01-15T06:36:46;208.73;;;74.53;;
10705;SDS011;5404;42.656;23.336;2024-01-15T06:39:11;183.95;;;67.88;;
10705;SDS011;5404;42.656;23.336;2024-01-15T06:41:37;156.85;;;58.65;;
10705;SDS011;5404;42.656;23.336;2024-01-15T06:44:08;151.52;;;58.65;;
10705;SDS011;5404;42.656;23.336;2024-01-15T06:46:36;124.00;;;49.28;;
10705;SDS011;5404;42.656;23.336;2024-01-15T06:49:06;141.18;;;54.28;;
10705;SDS011;5404;42.656;23.336;2024-01-15T06:51:31;148.48;;;53.28;;
10705;SDS011;5404;42.656;23.336;2024-01-15T06:53:57;141.20;;;52.80;;
10705;SDS011;5404;42.656;23.336;2024-01-15T06:56:22;141.73;;;52.17;;
10705;SDS011;5404;42.656;23.336;2024-01-15T06:58:48;124.72;;;50.03;;
10705;SDS011;5404;42.656;23.336;2024-01-15T07:01:13;128.20;;;52.17;;
10705;SDS011;5404;42.656;23.336;2024-01-15T07:03:38;176.32;;;75.50;;
10705;SDS011;5404;42.656;23.336;2024-01-15T07:06:05;144.15;;;58.45;;
10705;SDS011;5404;42.656;23.336;2024-01-15T07:08:30;151.88;;;63.15;;
10705;SDS011;5404;42.656;23.336;2024-01-15T07:10:56;147.45;;;59.05;;
10705;SDS011;5404;42.656;23.336;2024-01-15T07:13:21;109.68;;;47.33;;
10705;SDS011;5404;42.656;23.336;2024-01-15T07:15:46;130.52;;;53.63;;
10705;SDS011;5404;42.656;23.336;2024-01-15T07:18:12;132.40;;;53.47;;
10705;SDS011;5404;42.656;23.336;2024-01-15T07:20:37;132.38;;;53.53;;
10705;SDS011;5404;42.656;23.336;2024-01-15T07:23:03;142.27;;;51.40;;
10705;SDS011;5404;42.656;23.336;2024-01-15T07:25:29;142.32;;;56.45;;
10705;SDS011;5404;42.656;23.336;2024-01-15T07:27:54;123.25;;;53.17;;
10705;SDS011;5404;42.656;23.336;2024-01-15T07:30:20;148.10;;;59.53;;
10705;SDS011;5404;42.656;23.336;2024-01-15T07:32:46;144.07;;;63.58;;
10705;SDS011;5404;42.656;23.336;2024-01-15T07:35:12;133.55;;;55.90;;
10705;SDS011;5404;42.656;23.336;2024-01-15T07:37:38;146.52;;;49.83;;
10705;SDS011;5404;42.656;23.336;2024-01-15T07:40:03;140.68;;;55.65;;
10705;SDS011;5404;42.656;23.336;2024-01-15T07:42:30;122.35;;;49.08;;
10705;SDS011;5404;42.656;23.336;2024-01-15T07:44:56;129.05;;;54.25;;
10705;SDS011;5404;42.656;23.336;2024-01-15T07:47:21;141.05;;;56.70;;
10705;SDS011;5404;42.656;23.336;2024-01-15T07:49:47;133.60;;;53.78;;
10705;SDS011;5404;42.656;23.336;2024-01-15T07:52:12;128.20;;;57.53;;
10705;SDS011;5404;42.656;23.336;2024-01-15T07:54:38;149.05;;;55.33;;
10705;SDS011;5404;42.656;23.336;2024-01-15T07:57:04;166.70;;;68.70;;
10705;SDS011;5404;42.656;23.336;2024-01-15T07:59:29;135.57;;;54.95;;
10705;SDS011;5404;42.656;23.336;2024-01-15T08:01:55;136.07;;;57.20;;
10705;SDS011;5404;42.656;23.336;2024-01-15T08:04:20;142.70;;;57.22;;
10705;SDS011;5404;42.656;23.336;2024-01-15T08:06:47;78.88;;;31.45;;
10705;SDS011;5404;42.656;23.336;2024-01-15T08:09:12;136.55;;;50.33;;
10705;SDS011;5404;42.656;23.336;2024-01-15T08:11:42;104.63;;;42.42;;
10705;SDS011;5404;42.656;23.336;2024-01-15T08:14:08;94.30;;;39.38;;
10705;SDS011;5404;42.656;23.336;2024-01-15T08:16:35;94.90;;;37.30;;
10705;SDS011;5404;42.656;23.336;2024-01-15T08:19:01;96.43;;;37.92;;
10705;SDS011;5404;42.656;23.336;2024-01-15T08:21:27;94.65;;;37.03;;
10705;SDS011;5404;42.656;23.336;2024-01-15T08:23:56;98.63;;;39.20;;
10705;SDS011;5404;42.656;23.336;2024-01-15T08:26:23;101.47;;;39.30;;
10705;SDS011;5404;42.656;23.336;2024-01-15T08:28:48;98.10;;;37.97;;
10705;SDS011;5404;42.656;23.336;2024-01-15T08:31:14;97.05;;;38.70;;
10705;SDS011;5404;42.656;23.336;2024-01-15T08:33:39;78.72;;;36.83;;
10705;SDS011;5404;42.656;23.336;2024-01-15T08:36:04;87.82;;;36.53;;
10705;SDS011;5404;42.656;23.336;2024-01-15T08:38:31;77.53;;;34.85;;
10705;SDS011;5404;42.656;23.336;2024-01-15T08:40:57;108.65;;;41.22;;
10705;SDS011;5404;42.656;23.336;2024-01-15T08:43:25;116.03;;;44.78;;
10705;SDS011;5404;42.656;23.336;2024-01-15T08:45:51;106.43;;;45.33;;
10705;SDS011;5404;42.656;23.336;2024-01-15T08:48:16;112.93;;;43.38;;
10705;SDS011;5404;42.656;23.336;2024-01-15T08:50:42;116.70;;;44.25;;
10705;SDS011;5404;42.656;23.336;2024-01-15T08:53:07;102.82;;;42.20;;
10705;SDS011;5404;42.656;23.336;2024-01-15T08:55:33;103.72;;;37.70;;
10705;SDS011;5404;42.656;23.336;2024-01-15T08:57:58;95.78;;;41.28;;
10705;SDS011;5404;42.656;23.336;2024-01-15T09:00:24;99.07;;;40.97;;
10705;SDS011;5404;42.656;23.336;2024-01-15T09:02:49;89.25;;;38.20;;
10705;SDS011;5404;42.656;23.336;2024-01-15T09:05:15;96.13;;;39.08;;
10705;SDS011;5404;42.656;23.336;2024-01-15T09:07:40;96.18;;;43.72;;
10705;SDS011;5404;42.656;23.336;2024-01-15T09:10:06;115.28;;;42.10;;
10705;SDS011;5404;42.656;23.336;2024-01-15T09:12:32;102.93;;;43.20;;
10705;SDS011;5404;42.656;23.336;2024-01-15T09:14:57;101.50;;;43.92;;
10705;SDS011;5404;42.656;23.336;2024-01-15T09:17:22;113.75;;;44.72;;
10705;SDS011;5404;42.656;23.336;2024-01-15T09:19:48;107.35;;;46.67;;
10705;SDS011;5404;42.656;23.336;2024-01-15T09:22:14;125.65;;;45.45;;
10705;SDS011;5404;42.656;23.336;2024-01-15T09:27:08;124.93;;;43.20;;
10705;SDS011;5404;42.656;23.336;2024-01-15T09:29:33;113.28;;;44.78;;
10705;SDS011;5404;42.656;23.336;2024-01-15T09:32:01;97.50;;;41.00;;
10705;SDS011;5404;42.656;23.336;2024-01-15T09:34:28;89.03;;;38.08;;
10705;SDS011;5404;42.656;23.336;2024-01-15T09:36:53;98.65;;;37.30;;
10705;SDS011;5404;42.656;23.336;2024-01-15T09:39:19;100.57;;;39.75;;
10705;SDS011;5404;42.656;23.336;2024-01-15T09:41:44;83.60;;;35.58;;
10705;SDS011;5404;42.656;23.336;2024-01-15T09:44:10;90.07;;;36.15;;
10705;SDS011;5404;42.656;23.336;2024-01-15T09:46:37;77.28;;;30.05;;
10705;SDS011;5404;42.656;23.336;2024-01-15T09:49:03;82.72;;;33.03;;
10705;SDS011;5404;42.656;23.336;2024-01-15T09:51:31;76.13;;;31.33;;
10705;SDS011;5404;42.656;23.336;2024-01-15T09:53:57;87.80;;;33.10;;
10705;SDS011;5404;42.656;23.336;2024-01-15T09:56:23;82.95;;;33.83;;
10705;SDS011;5404;42.656;23.336;2024-01-15T09:58:49;116.13;;;50.90;;
10705;SDS011;5404;42.656;23.336;2024-01-15T10:01:17;119.60;;;47.30;;
10705;SDS011;5404;42.656;23.336;2024-01-15T10:03:45;138.53;;;57.23;;
10705;SDS011;5404;42.656;23.336;2024-01-15T10:06:11;125.55;;;51.22;;
10705;SDS011;5404;42.656;23.336;2024-01-15T10:08:42;140.57;;;56.97;;
10705;SDS011;5404;42.656;23.336;2024-01-15T10:11:12;139.52;;;58.67;;
10705;SDS011;5404;42.656;23.336;2024-01-15T10:13:37;158.40;;;59.10;;
10705;SDS011;5404;42.656;23.336;2024-01-15T10:16:04;158.38;;;66.93;;
10705;SDS011;5404;42.656;23.336;2024-01-15T10:18:29;158.65;;;65.15;;
10705;SDS011;5404;42.656;23.336;2024-01-15T10:20:55;170.50;;;67.78;;
10705;SDS011;5404;42.656;23.336;2024-01-15T10:23:22;161.43;;;67.10;;
10705;SDS011;5404;42.656;23.336;2024-01-15T10:25:48;154.50;;;66.13;;
10705;SDS011;5404;42.656;23.336;2024-01-15T10:28:14;139.90;;;61.42;;
10705;SDS011;5404;42.656;23.336;2024-01-15T10:30:39;151.82;;;60.08;;
10705;SDS011;5404;42.656;23.336;2024-01-15T10:33:05;153.13;;;63.65;;
10705;SDS011;5404;42.656;23.336;2024-01-15T10:35:30;139.82;;;60.05;;
10705;SDS011;5404;42.656;23.336;2024-01-15T10:37:59;153.82;;;55.92;;
10705;SDS011;5404;42.656;23.336;2024-01-15T10:40:25;172.10;;;73.38;;
10705;SDS011;5404;42.656;23.336;2024-01-15T10:42:51;144.57;;;59.53;;
10705;SDS011;5404;42.656;23.336;2024-01-15T10:45:17;132.02;;;56.58;;
10705;SDS011;5404;42.656;23.336;2024-01-15T10:47:43;119.65;;;48.33;;
10705;SDS011;5404;42.656;23.336;2024-01-15T10:50:08;119.38;;;50.53;;
10705;SDS011;5404;42.656;23.336;2024-01-15T10:52:35;79.80;;;35.72;;
10705;SDS011;5404;42.656;23.336;2024-01-15T10:55:06;95.57;;;37.45;;
10705;SDS011;5404;42.656;23.336;2024-01-15T10:57:34;78.88;;;39.15;;
10705;SDS011;5404;42.656;23.336;2024-01-15T11:00:00;80.05;;;38.20;;
10705;SDS011;5404;42.656;23.336;2024-01-15T11:02:29;87.10;;;33.95;;
10705;SDS011;5404;42.656;23.336;2024-01-15T11:04:55;87.57;;;33.92;;
10705;SDS011;5404;42.656;23.336;2024-01-15T11:07:21;85.32;;;37.08;;
10705;SDS011;5404;42.656;23.336;2024-01-15T11:09:49;85.35;;;36.88;;
10705;SDS011;5404;42.656;23.336;2024-01-15T11:12:15;85.90;;;35.20;;
10705;SDS011;5404;42.656;23.336;2024-01-15T11:14:46;76.80;;;35.83;;
10705;SDS011;5404;42.656;23.336;2024-01-15T11:17:12;69.35;;;33.35;;
10705;SDS011;5404;42.656;23.336;2024-01-15T11:19:48;85.82;;;38.78;;
10705;SDS011;5404;42.656;23.336;2024-01-15T11:24:55;79.32;;;36.10;;
10705;SDS011;5404;42.656;23.336;2024-01-15T11:28:04;91.93;;;43.67;;
10705;SDS011;5404;42.656;23.336;2024-01-15T11:30:17;84.30;;;36.38;;
10705;SDS011;5404;42.656;23.336;2024-01-15T11:32:45;70.43;;;33.90;;
10705;SDS011;5404;42.656;23.336;2024-01-15T11:35:11;114.75;;;54.88;;
10705;SDS011;5404;42.656;23.336;2024-01-15T11:40:17;78.20;;;32.50;;
10705;SDS011;5404;42.656;23.336;2024-01-15T11:42:44;70.22;;;35.90;;
10705;SDS011;5404;42.656;23.336;2024-01-15T11:45:10;56.67;;;27.90;;
10705;SDS011;5404;42.656;23.336;2024-01-15T11:50:17;62.78;;;28.00;;
10705;SDS011;5404;42.656;23.336;2024-01-15T11:52:44;64.18;;;27.25;;
10705;SDS011;5404;42.656;23.336;2024-01-15T11:57:50;52.08;;;25.85;;
10705;SDS011;5404;42.656;23.336;2024-01-15T12:00:19;51.80;;;21.63;;
10705;SDS011;5404;42.656;23.336;2024-01-15T12:02:46;59.28;;;24.77;;
10705;SDS011;5404;42.656;23.336;2024-01-15T12:05:14;42.20;;;20.75;;
10705;SDS011;5404;42.656;23.336;2024-01-15T12:07:41;59.08;;;27.35;;
10705;SDS011;5404;42.656;23.336;2024-01-15T12:10:08;51.63;;;21.77;;
10705;SDS011;5404;42.656;23.336;2024-01-15T12:15:30;46.30;;;20.63;;
10705;SDS011;5404;42.656;23.336;2024-01-15T12:17:56;47.00;;;22.33;;
10705;SDS011;5404;42.656;23.336;2024-01-15T12:20:23;44.90;;;20.15;;
10705;SDS011;5404;42.656;23.336;2024-01-15T12:22:52;53.20;;;21.58;;
10705;SDS011;5404;42.656;23.336;2024-01-15T12:25:18;62.75;;;24.50;;
10705;SDS011;5404;42.656;23.336;2024-01-15T12:27:44;44.38;;;20.88;;
10705;SDS011;5404;42.656;23.336;2024-01-15T12:30:10;65.28;;;24.63;;
10705;SDS011;5404;42.656;23.336;2024-01-15T12:32:38;59.40;;;21.88;;
10705;SDS011;5404;42.656;23.336;2024-01-15T12:35:04;55.53;;;23.25;;
10705;SDS011;5404;42.656;23.336;2024-01-15T12:37:30;61.67;;;26.50;;
10705;SDS011;5404;42.656;23.336;2024-01-15T12:39:56;42.88;;;21.15;;
10705;SDS011;5404;42.656;23.336;2024-01-15T12:42:24;44.13;;;21.40;;
10705;SDS011;5404;42.656;23.336;2024-01-15T12:44:49;85.60;;;23.52;;
10705;SDS011;5404;42.656;23.336;2024-01-15T12:47:14;55.67;;;24.13;;
10705;SDS011;5404;42.656;23.336;2024-01-15T12:52:11;55.95;;;23.80;;
10705;SDS011;5404;42.656;23.336;2024-01-15T12:54:37;53.67;;;24.60;;
10705;SDS011;5404;42.656;23.336;2024-01-15T12:57:02;65.65;;;23.92;;
10705;SDS011;5404;42.656;23.336;2024-01-15T12:59:28;54.35;;;23.73;;
10705;SDS011;5404;42.656;23.336;2024-01-15T13:01:54;53.30;;;24.45;;
10705;SDS011;5404;42.656;23.336;2024-01-15T13:04:23;63.40;;;25.40;;
10705;SDS011;5404;42.656;23.336;2024-01-15T13:06:50;68.45;;;25.85;;
10705;SDS011;5404;42.656;23.336;2024-01-15T13:09:15;64.43;;;25.75;;
10705;SDS011;5404;42.656;23.336;2024-01-15T13:11:42;65.90;;;26.38;;
10705;SDS011;5404;42.656;23.336;2024-01-15T13:14:08;94.93;;;37.45;;
10705;SDS011;5404;42.656;23.336;2024-01-15T13:16:33;73.38;;;28.63;;
10705;SDS011;5404;42.656;23.336;2024-01-15T13:18:59;64.38;;;26.77;;
10705;SDS011;5404;42.656;23.336;2024-01-15T13:21:24;73.57;;;26.80;;
10705;SDS011;5404;42.656;23.336;2024-01-15T13:23:52;65.85;;;26.65;;
10705;SDS011;5404;42.656;23.336;2024-01-15T13:28:45;63.28;;;24.95;;
10705;SDS011;5404;42.656;23.336;2024-01-15T13:31:11;78.60;;;30.08;;
10705;SDS011;5404;42.656;23.336;2024-01-15T13:33:38;53.90;;;24.40;;
10705;SDS011;5404;42.656;23.336;2024-01-15T13:36:04;66.43;;;29.77;;
10705;SDS011;5404;42.656;23.336;2024-01-15T13:41:01;65.78;;;27.88;;
10705;SDS011;5404;42.656;23.336;2024-01-15T13:43:27;52.45;;;24.05;;
10705;SDS011;5404;42.656;23.336;2024-01-15T13:45:59;59.85;;;23.88;;
10705;SDS011;5404;42.656;23.336;2024-01-15T13:48:24;63.75;;;25.50;;
10705;SDS011;5404;42.656;23.336;2024-01-15T13:50:51;60.35;;;25.45;;
10705;SDS011;5404;42.656;23.336;2024-01-15T13:53:17;79.82;;;27.13;;
10705;SDS011;5404;42.656;23.336;2024-01-15T13:55:44;75.30;;;28.67;;
10705;SDS011;5404;42.656;23.336;2024-01-15T13:58:09;100.97;;;37.85;;
10705;SDS011;5404;42.656;23.336;2024-01-15T14:00:35;92.80;;;34.45;;
10705;SDS011;5404;42.656;23.336;2024-01-15T14:03:01;76.22;;;31.35;;
10705;SDS011;5404;42.656;23.336;2024-01-15T14:05:26;103.43;;;37.40;;
10705;SDS011;5404;42.656;23.336;2024-01-15T14:07:52;71.57;;;30.20;;
10705;SDS011;5404;42.656;23.336;2024-01-15T14:10:17;85.18;;;30.90;;
10705;SDS011;5404;42.656;23.336;2024-01-15T14:12:42;149.02;;;50.75;;
10705;SDS011;5404;42.656;23.336;2024-01-15T14:15:08;104.65;;;33.28;;
10705;SDS011;5404;42.656;23.336;2024-01-15T14:17:34;78.93;;;28.45;;
10705;SDS011;5404;42.656;23.336;2024-01-15T14:19:59;90.50;;;31.45;;
10705;SDS011;5404;42.656;23.336;2024-01-15T14:22:25;80.88;;;32.08;;
10705;SDS011;5404;42.656;23.336;2024-01-15T14:24:50;80.05;;;30.25;;
10705;SDS011;5404;42.656;23.336;2024-01-15T14:27:16;83.00;;;30.10;;
10705;SDS011;5404;42.656;23.336;2024-01-15T14:29:41;80.88;;;29.55;;
10705;SDS011;5404;42.656;23.336;2024-01-15T14:32:07;77.68;;;31.00;;